Windflight — WDF6324 — position and weather

sailwx.info

Track history (hours):
 
Tides and Currents Weather Stations Pressure Air Temp Water Temp Dewpoint Dewpoint Depression Visibility Wind Speed Wind Dir Waves Ship Positions

Windflight

Owner: Windflight Inc., Medina, WA. More information available from US FCC via Universal Licensing System and Coast Guard Vessel Documentation Center.

Last reported at 2016-Jul-04 20:28 UTC. Time now 2016-Jul-26 14:13 UTC.
Position N 51°32' W 127°53'.
Warning: this ship's position is 21 days out of date.

Length 21 m.

Type: Pleasure craft. MMSI: 367473060.

Date/timePositionNaut miles runAvg speedWind from/ knotsBaromVisibWave heightAir tempDewpointWater temp
2016-Jul-04 20:28N 51°32' W 127°53'20 5.9
2016-Jul-04 17:11N 51°12' W 127°51'4 7.0
2016-Jul-04 16:33N 51°08' W 127°48'8 8.4
2016-Jul-04 15:33N 51°03' W 127°38'5 4.4
2016-Jul-04 14:27N 51°03' W 127°30'0 0.0
2016-Jul-04 13:33N 51°03' W 127°30'0 0.0
2016-Jul-04 12:33N 51°03' W 127°30'0 0.0
2016-Jul-04 11:33N 51°03' W 127°30'0 0.0
2016-Jul-04 10:33N 51°03' W 127°30'0 0.0
2016-Jul-04 09:33N 51°03' W 127°30'0 0.0
2016-Jul-04 08:33N 51°03' W 127°30'0 0.0
2016-Jul-04 07:33N 51°03' W 127°30'0 0.0
2016-Jul-04 06:33N 51°03' W 127°30'0 0.0
2016-Jul-04 04:33N 51°03' W 127°30'0 0.0
2016-Jul-04 03:33N 51°03' W 127°30'0 0.0
2016-Jul-04 02:33N 51°03' W 127°30'0 0.0
2016-Jul-04 01:33N 51°03' W 127°30'0 0.0
2016-Jul-04 00:33N 51°03' W 127°30'0 0.0
2016-Jul-03 23:33N 51°03' W 127°30'0 0.0
2016-Jul-03 22:33N 51°03' W 127°30'0 0.0
2016-Jul-03 21:33N 51°03' W 127°30'0 0.0
2016-Jul-03 20:33N 51°03' W 127°30'3 2.9
2016-Jul-03 19:33N 51°01' W 127°32'7 6.8
2016-Jul-03 18:33N 50°55' W 127°26'5 5.5
2016-Jul-03 17:33N 50°54' W 127°17'0 0.0
2016-Jul-03 16:33N 50°54' W 127°17'0 0.0
2016-Jul-03 15:33N 50°54' W 127°17'0 0.0
2016-Jul-03 14:33N 50°54' W 127°17'0 0.0
2016-Jul-03 13:33N 50°54' W 127°17'0 0.0
2016-Jul-03 12:21N 50°54' W 127°17'0 0.0
2016-Jul-03 11:33N 50°54' W 127°17'0 0.0
2016-Jul-03 10:33N 50°54' W 127°17'0 0.0
2016-Jul-03 09:33N 50°54' W 127°17'0 0.0
2016-Jul-03 08:33N 50°54' W 127°17'0 0.0
2016-Jul-03 07:21N 50°54' W 127°17'0 0.0
2016-Jul-03 06:16N 50°54' W 127°17'0 0.0
2016-Jul-03 05:29N 50°54' W 127°17'0 0.0
2016-Jul-03 04:33N 50°54' W 127°17'0 0.0
2016-Jul-03 03:27N 50°54' W 127°17'0 0.0
2016-Jul-03 02:33N 50°54' W 127°17'0 0.0
2016-Jul-03 01:33N 50°54' W 127°17'0 0.0
2016-Jul-03 00:21N 50°54' W 127°17'1 1.1
2016-Jul-02 23:33N 50°54' W 127°16'79 2.5
2016-Jul-01 16:28N 50°20' W 125°25'8 8.9
2016-Jul-01 15:33N 50°12' W 125°22'9 9.0
2016-Jul-01 14:33N 50°05' W 125°14'1 0.5
2016-Jul-01 13:31N 50°04' W 125°13'0 0.0
2016-Jul-01 12:22N 50°04' W 125°13'0 0.0
2016-Jul-01 11:31N 50°04' W 125°13'0 0.0
2016-Jul-01 10:31N 50°04' W 125°13'0 0.0
2016-Jul-01 09:31N 50°04' W 125°13'0 0.0
2016-Jul-01 08:31N 50°04' W 125°13'0 0.0
2016-Jul-01 07:31N 50°04' W 125°13'0 0.0
2016-Jul-01 06:25N 50°04' W 125°13'0 0.0
2016-Jul-01 05:25N 50°04' W 125°13'0 0.0
2016-Jul-01 04:31N 50°04' W 125°13'0 0.0
2016-Jul-01 03:25N 50°04' W 125°13'0 0.0
2016-Jul-01 02:25N 50°04' W 125°13'0 0.0
2016-Jul-01 01:28N 50°04' W 125°13'0 0.0
2016-Jul-01 00:31N 50°04' W 125°13'0 0.0
2016-Jun-30 23:25N 50°04' W 125°13'0 0.0
2016-Jun-30 22:31N 50°04' W 125°13'0 0.0
2016-Jun-30 21:31N 50°04' W 125°13'0 0.0
2016-Jun-30 20:31N 50°04' W 125°13'0 0.0
2016-Jun-30 19:31N 50°04' W 125°13'0 0.0
2016-Jun-30 18:31N 50°04' W 125°13'0 0.0
2016-Jun-30 17:31N 50°04' W 125°13'0 0.0
2016-Jun-30 16:31N 50°04' W 125°13'1 1.5
2016-Jun-30 15:33N 50°03' W 125°14'8 7.5
2016-Jun-30 14:33N 49°59' W 125°04'7 6.7
2016-Jun-30 13:33N 50°04' W 124°56'0 0.0
2016-Jun-30 12:33N 50°04' W 124°56'0 0.0
2016-Jun-30 11:33N 50°04' W 124°56'0 0.0
2016-Jun-30 10:30N 50°04' W 124°56'0 0.0
2016-Jun-30 09:30N 50°04' W 124°56'0 0.0
2016-Jun-30 08:33N 50°04' W 124°56'0 0.0
2016-Jun-30 07:30N 50°04' W 124°56'0 0.0
2016-Jun-30 06:30N 50°04' W 124°56'0 0.0
2016-Jun-30 05:30N 50°04' W 124°56'0 0.0
2016-Jun-30 04:33N 50°04' W 124°56'0 0.0
2016-Jun-30 03:33N 50°04' W 124°56'0 0.0
2016-Jun-30 02:33N 50°04' W 124°56'0 0.0
2016-Jun-30 01:33N 50°04' W 124°56'0 0.0
2016-Jun-30 00:33N 50°04' W 124°56'0 0.0
2016-Jun-29 23:30N 50°04' W 124°56'0 0.0
2016-Jun-29 22:30N 50°04' W 124°56'0 0.0
2016-Jun-29 21:30N 50°04' W 124°56'0 0.0
2016-Jun-29 20:33N 50°04' W 124°56'0 0.0
2016-Jun-29 19:33N 50°04' W 124°56'0 0.0
2016-Jun-29 18:33N 50°04' W 124°56'0 0.0
2016-Jun-29 17:33N 50°04' W 124°56'0 0.0
2016-Jun-29 16:33N 50°04' W 124°56'0 0.0
2016-Jun-29 15:33N 50°04' W 124°56'0 0.0
2016-Jun-29 14:33N 50°04' W 124°56'0 0.0
2016-Jun-29 13:33N 50°04' W 124°56'0 0.0
2016-Jun-29 12:33N 50°04' W 124°56'0 0.0
2016-Jun-29 11:33N 50°04' W 124°56'0 0.0
2016-Jun-29 10:33N 50°04' W 124°56'0 0.0
2016-Jun-29 09:27N 50°04' W 124°56'0 0.0
2016-Jun-29 08:30N 50°04' W 124°56'0 0.0
2016-Jun-29 07:30N 50°04' W 124°56'0 0.0
2016-Jun-29 06:24N 50°04' W 124°56'0 0.0
2016-Jun-29 05:30N 50°04' W 124°56'0 0.0
2016-Jun-29 04:33N 50°04' W 124°56'0 0.0
2016-Jun-29 03:30N 50°04' W 124°56'0 0.0
2016-Jun-29 02:33N 50°04' W 124°56'0 0.0
2016-Jun-29 01:27N 50°04' W 124°56'0 0.0
2016-Jun-29 00:33N 50°04' W 124°56'0 0.0
2016-Jun-28 23:33N 50°04' W 124°56'0 0.0
2016-Jun-28 22:33N 50°04' W 124°56'0 0.0
2016-Jun-28 21:30N 50°04' W 124°56'0 0.0
2016-Jun-28 20:33N 50°04' W 124°56'0 0.0
2016-Jun-28 19:33N 50°04' W 124°56'0 0.0
2016-Jun-28 18:30N 50°04' W 124°56'0 0.0
2016-Jun-28 17:33N 50°04' W 124°56'0 0.0
2016-Jun-28 16:33N 50°04' W 124°56'0 0.0
2016-Jun-28 15:33N 50°04' W 124°56'0 0.0
2016-Jun-28 14:33N 50°04' W 124°56'0 0.0
2016-Jun-28 13:33N 50°04' W 124°56'0 0.0
2016-Jun-28 12:33N 50°04' W 124°56'0 0.0
2016-Jun-28 11:33N 50°04' W 124°56'0 0.0
2016-Jun-28 10:33N 50°04' W 124°56'0 0.0
2016-Jun-28 09:33N 50°04' W 124°56'0 0.0
2016-Jun-28 08:30N 50°04' W 124°56'0 0.0
2016-Jun-28 07:33N 50°04' W 124°56'0 0.0
2016-Jun-28 06:30N 50°04' W 124°56'0 0.0
2016-Jun-28 04:33N 50°04' W 124°56'0 0.0
2016-Jun-28 03:33N 50°04' W 124°56'0 0.0
2016-Jun-28 02:33N 50°04' W 124°56'0 0.0
2016-Jun-28 01:33N 50°04' W 124°56'0 0.0
2016-Jun-28 00:24N 50°04' W 124°56'0 0.0
2016-Jun-27 23:33N 50°04' W 124°56'0 0.0
2016-Jun-27 22:33N 50°04' W 124°56'0 0.0
2016-Jun-27 21:33N 50°04' W 124°56'0 0.0
2016-Jun-27 20:33N 50°04' W 124°56'0 0.0
2016-Jun-27 19:33N 50°04' W 124°56'0 0.0
2016-Jun-27 18:33N 50°04' W 124°56'0 0.0
2016-Jun-27 17:33N 50°04' W 124°56'0 0.0
2016-Jun-27 16:33N 50°04' W 124°56'0 0.0
2016-Jun-27 15:33N 50°04' W 124°56'0 0.0
2016-Jun-27 14:33N 50°04' W 124°56'0 0.0
2016-Jun-27 13:33N 50°04' W 124°56'0 0.0
2016-Jun-27 12:33N 50°04' W 124°56'0 0.0
2016-Jun-27 11:33N 50°04' W 124°56'0 0.0
2016-Jun-27 10:33N 50°04' W 124°56'0 0.0
2016-Jun-26 10:18N 50°04' W 124°56'0 0.0
2016-Jun-26 09:33N 50°04' W 124°56'0 0.0
2016-Jun-26 08:33N 50°04' W 124°56'0 0.0
2016-Jun-26 07:33N 50°04' W 124°56'0 0.0
2016-Jun-26 06:30N 50°04' W 124°56'0 0.0
2016-Jun-26 05:33N 50°04' W 124°56'0 0.0
2016-Jun-26 04:30N 50°04' W 124°56'0 0.0
2016-Jun-26 03:33N 50°04' W 124°56'0 0.0
2016-Jun-26 02:33N 50°04' W 124°56'0 0.0
2016-Jun-26 01:33N 50°04' W 124°56'0 0.0
2016-Jun-26 00:33N 50°04' W 124°56'0 0.0
2016-Jun-25 23:33N 50°04' W 124°56'0 0.0
2016-Jun-25 22:33N 50°04' W 124°56'0 0.0
2016-Jun-25 21:33N 50°04' W 124°56'0 0.0
2016-Jun-25 20:33N 50°04' W 124°56'0 0.0
2016-Jun-25 19:34N 50°04' W 124°56'8 7.6
2016-Jun-25 18:33N 49°58' W 124°47'9 8.9
2016-Jun-25 17:33N 49°52' W 124°37'9 8.9
2016-Jun-25 16:33N 49°46' W 124°27'10 9.5
2016-Jun-25 15:33N 49°41' W 124°15'9 8.7
2016-Jun-25 14:33N 49°38' W 124°02'1 0.3
2016-Jun-25 12:15N 49°38' W 124°01'0 0.0
2016-Jun-25 11:33N 49°38' W 124°01'0 0.0
2016-Jun-25 06:33N 49°38' W 124°01'0 0.0
2016-Jun-25 05:33N 49°38' W 124°01'0 0.0
2016-Jun-25 04:33N 49°38' W 124°01'0 0.0
2016-Jun-25 03:33N 49°38' W 124°01'0 0.0
2016-Jun-25 02:33N 49°38' W 124°01'0 0.0
2016-Jun-25 01:33N 49°38' W 124°01'0 0.0
2016-Jun-25 00:27N 49°38' W 124°01'0 0.0
2016-Jun-24 23:27N 49°38' W 124°01'0 0.0
2016-Jun-24 22:33N 49°38' W 124°01'3 2.9
2016-Jun-24 21:33N 49°35' W 124°03'9 8.8
2016-Jun-24 20:33N 49°29' W 123°54'  
Track history (hours):
 
Tides and Currents Weather Stations Pressure Air Temp Water Temp Dewpoint Dewpoint Depression Visibility Wind Speed Wind Dir Waves Ship Positions

Windflight

Owner: Windflight Inc., Medina, WA. More information available from US FCC via Universal Licensing System and Coast Guard Vessel Documentation Center.

Last reported at 2016-Jul-04 20:28 UTC. Time now 2016-Jul-26 14:13 UTC.
Position N 51°32' W 127°53'.
Warning: this ship's position is 21 days out of date.

Length 21 m.

Type: Pleasure craft. MMSI: 367473060.

Date/timePositionNaut miles runAvg speedWind from/ knotsBaromVisibWave heightAir tempDewpointWater temp
2016-Jul-04 20:28N 51°32' W 127°53'20 5.9
2016-Jul-04 17:11N 51°12' W 127°51'4 7.0
2016-Jul-04 16:33N 51°08' W 127°48'8 8.4
2016-Jul-04 15:33N 51°03' W 127°38'5 4.4
2016-Jul-04 14:27N 51°03' W 127°30'0 0.0
2016-Jul-04 13:33N 51°03' W 127°30'0 0.0
2016-Jul-04 12:33N 51°03' W 127°30'0 0.0
2016-Jul-04 11:33N 51°03' W 127°30'0 0.0
2016-Jul-04 10:33N 51°03' W 127°30'0 0.0
2016-Jul-04 09:33N 51°03' W 127°30'0 0.0
2016-Jul-04 08:33N 51°03' W 127°30'0 0.0
2016-Jul-04 07:33N 51°03' W 127°30'0 0.0
2016-Jul-04 06:33N 51°03' W 127°30'0 0.0
2016-Jul-04 04:33N 51°03' W 127°30'0 0.0
2016-Jul-04 03:33N 51°03' W 127°30'0 0.0
2016-Jul-04 02:33N 51°03' W 127°30'0 0.0
2016-Jul-04 01:33N 51°03' W 127°30'0 0.0
2016-Jul-04 00:33N 51°03' W 127°30'0 0.0
2016-Jul-03 23:33N 51°03' W 127°30'0 0.0
2016-Jul-03 22:33N 51°03' W 127°30'0 0.0
2016-Jul-03 21:33N 51°03' W 127°30'0 0.0
2016-Jul-03 20:33N 51°03' W 127°30'3 2.9
2016-Jul-03 19:33N 51°01' W 127°32'7 6.8
2016-Jul-03 18:33N 50°55' W 127°26'5 5.5
2016-Jul-03 17:33N 50°54' W 127°17'0 0.0
2016-Jul-03 16:33N 50°54' W 127°17'0 0.0
2016-Jul-03 15:33N 50°54' W 127°17'0 0.0
2016-Jul-03 14:33N 50°54' W 127°17'0 0.0
2016-Jul-03 13:33N 50°54' W 127°17'0 0.0
2016-Jul-03 12:21N 50°54' W 127°17'0 0.0
2016-Jul-03 11:33N 50°54' W 127°17'0 0.0
2016-Jul-03 10:33N 50°54' W 127°17'0 0.0
2016-Jul-03 09:33N 50°54' W 127°17'0 0.0
2016-Jul-03 08:33N 50°54' W 127°17'0 0.0
2016-Jul-03 07:21N 50°54' W 127°17'0 0.0
2016-Jul-03 06:16N 50°54' W 127°17'0 0.0
2016-Jul-03 05:29N 50°54' W 127°17'0 0.0
2016-Jul-03 04:33N 50°54' W 127°17'0 0.0
2016-Jul-03 03:27N 50°54' W 127°17'0 0.0
2016-Jul-03 02:33N 50°54' W 127°17'0 0.0
2016-Jul-03 01:33N 50°54' W 127°17'0 0.0
2016-Jul-03 00:21N 50°54' W 127°17'1 1.1
2016-Jul-02 23:33N 50°54' W 127°16'79 2.5
2016-Jul-01 16:28N 50°20' W 125°25'8 8.9
2016-Jul-01 15:33N 50°12' W 125°22'9 9.0
2016-Jul-01 14:33N 50°05' W 125°14'1 0.5
2016-Jul-01 13:31N 50°04' W 125°13'0 0.0
2016-Jul-01 12:22N 50°04' W 125°13'0 0.0
2016-Jul-01 11:31N 50°04' W 125°13'0 0.0
2016-Jul-01 10:31N 50°04' W 125°13'0 0.0
2016-Jul-01 09:31N 50°04' W 125°13'0 0.0
2016-Jul-01 08:31N 50°04' W 125°13'0 0.0
2016-Jul-01 07:31N 50°04' W 125°13'0 0.0
2016-Jul-01 06:25N 50°04' W 125°13'0 0.0
2016-Jul-01 05:25N 50°04' W 125°13'0 0.0
2016-Jul-01 04:31N 50°04' W 125°13'0 0.0
2016-Jul-01 03:25N 50°04' W 125°13'0 0.0
2016-Jul-01 02:25N 50°04' W 125°13'0 0.0
2016-Jul-01 01:28N 50°04' W 125°13'0 0.0
2016-Jul-01 00:31N 50°04' W 125°13'0 0.0
2016-Jun-30 23:25N 50°04' W 125°13'0 0.0
2016-Jun-30 22:31N 50°04' W 125°13'0 0.0
2016-Jun-30 21:31N 50°04' W 125°13'0 0.0
2016-Jun-30 20:31N 50°04' W 125°13'0 0.0
2016-Jun-30 19:31N 50°04' W 125°13'0 0.0
2016-Jun-30 18:31N 50°04' W 125°13'0 0.0
2016-Jun-30 17:31N 50°04' W 125°13'0 0.0
2016-Jun-30 16:31N 50°04' W 125°13'1 1.5
2016-Jun-30 15:33N 50°03' W 125°14'8 7.5
2016-Jun-30 14:33N 49°59' W 125°04'7 6.7
2016-Jun-30 13:33N 50°04' W 124°56'0 0.0
2016-Jun-30 12:33N 50°04' W 124°56'0 0.0
2016-Jun-30 11:33N 50°04' W 124°56'0 0.0
2016-Jun-30 10:30N 50°04' W 124°56'0 0.0
2016-Jun-30 09:30N 50°04' W 124°56'0 0.0
2016-Jun-30 08:33N 50°04' W 124°56'0 0.0
2016-Jun-30 07:30N 50°04' W 124°56'0 0.0
2016-Jun-30 06:30N 50°04' W 124°56'0 0.0
2016-Jun-30 05:30N 50°04' W 124°56'0 0.0
2016-Jun-30 04:33N 50°04' W 124°56'0 0.0
2016-Jun-30 03:33N 50°04' W 124°56'0 0.0
2016-Jun-30 02:33N 50°04' W 124°56'0 0.0
2016-Jun-30 01:33N 50°04' W 124°56'0 0.0
2016-Jun-30 00:33N 50°04' W 124°56'0 0.0
2016-Jun-29 23:30N 50°04' W 124°56'0 0.0
2016-Jun-29 22:30N 50°04' W 124°56'0 0.0
2016-Jun-29 21:30N 50°04' W 124°56'0 0.0
2016-Jun-29 20:33N 50°04' W 124°56'0 0.0
2016-Jun-29 19:33N 50°04' W 124°56'0 0.0
2016-Jun-29 18:33N 50°04' W 124°56'0 0.0
2016-Jun-29 17:33N 50°04' W 124°56'0 0.0
2016-Jun-29 16:33N 50°04' W 124°56'0 0.0
2016-Jun-29 15:33N 50°04' W 124°56'0 0.0
2016-Jun-29 14:33N 50°04' W 124°56'0 0.0
2016-Jun-29 13:33N 50°04' W 124°56'0 0.0
2016-Jun-29 12:33N 50°04' W 124°56'0 0.0
2016-Jun-29 11:33N 50°04' W 124°56'0 0.0
2016-Jun-29 10:33N 50°04' W 124°56'0 0.0
2016-Jun-29 09:27N 50°04' W 124°56'0 0.0
2016-Jun-29 08:30N 50°04' W 124°56'0 0.0
2016-Jun-29 07:30N 50°04' W 124°56'0 0.0
2016-Jun-29 06:24N 50°04' W 124°56'0 0.0
2016-Jun-29 05:30N 50°04' W 124°56'0 0.0
2016-Jun-29 04:33N 50°04' W 124°56'0 0.0
2016-Jun-29 03:30N 50°04' W 124°56'0 0.0
2016-Jun-29 02:33N 50°04' W 124°56'0 0.0
2016-Jun-29 01:27N 50°04' W 124°56'0 0.0
2016-Jun-29 00:33N 50°04' W 124°56'0 0.0
2016-Jun-28 23:33N 50°04' W 124°56'0 0.0
2016-Jun-28 22:33N 50°04' W 124°56'0 0.0
2016-Jun-28 21:30N 50°04' W 124°56'0 0.0
2016-Jun-28 20:33N 50°04' W 124°56'0 0.0
2016-Jun-28 19:33N 50°04' W 124°56'0 0.0
2016-Jun-28 18:30N 50°04' W 124°56'0 0.0
2016-Jun-28 17:33N 50°04' W 124°56'0 0.0
2016-Jun-28 16:33N 50°04' W 124°56'0 0.0
2016-Jun-28 15:33N 50°04' W 124°56'0 0.0
2016-Jun-28 14:33N 50°04' W 124°56'0 0.0
2016-Jun-28 13:33N 50°04' W 124°56'0 0.0
2016-Jun-28 12:33N 50°04' W 124°56'0 0.0
2016-Jun-28 11:33N 50°04' W 124°56'0 0.0
2016-Jun-28 10:33N 50°04' W 124°56'0 0.0
2016-Jun-28 09:33N 50°04' W 124°56'0 0.0
2016-Jun-28 08:30N 50°04' W 124°56'0 0.0
2016-Jun-28 07:33N 50°04' W 124°56'0 0.0
2016-Jun-28 06:30N 50°04' W 124°56'0 0.0
2016-Jun-28 04:33N 50°04' W 124°56'0 0.0
2016-Jun-28 03:33N 50°04' W 124°56'0 0.0
2016-Jun-28 02:33N 50°04' W 124°56'0 0.0
2016-Jun-28 01:33N 50°04' W 124°56'0 0.0
2016-Jun-28 00:24N 50°04' W 124°56'0 0.0
2016-Jun-27 23:33N 50°04' W 124°56'0 0.0
2016-Jun-27 22:33N 50°04' W 124°56'0 0.0
2016-Jun-27 21:33N 50°04' W 124°56'0 0.0
2016-Jun-27 20:33N 50°04' W 124°56'0 0.0
2016-Jun-27 19:33N 50°04' W 124°56'0 0.0
2016-Jun-27 18:33N 50°04' W 124°56'0 0.0
2016-Jun-27 17:33N 50°04' W 124°56'0 0.0
2016-Jun-27 16:33N 50°04' W 124°56'0 0.0
2016-Jun-27 15:33N 50°04' W 124°56'0 0.0
2016-Jun-27 14:33N 50°04' W 124°56'0 0.0
2016-Jun-27 13:33N 50°04' W 124°56'0 0.0
2016-Jun-27 12:33N 50°04' W 124°56'0 0.0
2016-Jun-27 11:33N 50°04' W 124°56'0 0.0
2016-Jun-27 10:33N 50°04' W 124°56'0 0.0
2016-Jun-26 10:18N 50°04' W 124°56'0 0.0
2016-Jun-26 09:33N 50°04' W 124°56'0 0.0
2016-Jun-26 08:33N 50°04' W 124°56'0 0.0
2016-Jun-26 07:33N 50°04' W 124°56'0 0.0
2016-Jun-26 06:30N 50°04' W 124°56'0 0.0
2016-Jun-26 05:33N 50°04' W 124°56'0 0.0
2016-Jun-26 04:30N 50°04' W 124°56'0 0.0
2016-Jun-26 03:33N 50°04' W 124°56'0 0.0
2016-Jun-26 02:33N 50°04' W 124°56'0 0.0
2016-Jun-26 01:33N 50°04' W 124°56'0 0.0
2016-Jun-26 00:33N 50°04' W 124°56'0 0.0
2016-Jun-25 23:33N 50°04' W 124°56'0 0.0
2016-Jun-25 22:33N 50°04' W 124°56'0 0.0
2016-Jun-25 21:33N 50°04' W 124°56'0 0.0
2016-Jun-25 20:33N 50°04' W 124°56'0 0.0
2016-Jun-25 19:34N 50°04' W 124°56'8 7.6
2016-Jun-25 18:33N 49°58' W 124°47'9 8.9
2016-Jun-25 17:33N 49°52' W 124°37'9 8.9
2016-Jun-25 16:33N 49°46' W 124°27'10 9.5
2016-Jun-25 15:33N 49°41' W 124°15'9 8.7
2016-Jun-25 14:33N 49°38' W 124°02'1 0.3
2016-Jun-25 12:15N 49°38' W 124°01'0 0.0
2016-Jun-25 11:33N 49°38' W 124°01'0 0.0
2016-Jun-25 06:33N 49°38' W 124°01'0 0.0
2016-Jun-25 05:33N 49°38' W 124°01'0 0.0
2016-Jun-25 04:33N 49°38' W 124°01'0 0.0
2016-Jun-25 03:33N 49°38' W 124°01'0 0.0
2016-Jun-25 02:33N 49°38' W 124°01'0 0.0
2016-Jun-25 01:33N 49°38' W 124°01'0 0.0
2016-Jun-25 00:27N 49°38' W 124°01'0 0.0
2016-Jun-24 23:27N 49°38' W 124°01'0 0.0
2016-Jun-24 22:33N 49°38' W 124°01'3 2.9
2016-Jun-24 21:33N 49°35' W 124°03'9 8.8
2016-Jun-24 20:33N 49°29' W 123°54'  

Dump ship's entire track history